Terminal Aerodrome Forecast
Issued by NWS

Home | Current Version | Previous Version | Text Only | Print | Product List | Glossary On
Versions: 1 2 3 4 5 6 7 8 9 10 11 12 13 14 15 16 17 18 19 20 21 22 23 24 25
000
FTUS41 KPBZ 170101 AAA
TAFFKL
TAF AMD
KFKL 170101Z 1701/1724 24003KT P6SM BKN035
     FM171400 14003KT P6SM BKN010
     FM172000 18006KT P6SM VCSH OVC020=

USA.gov is the U.S. government's official web portal to all federal, state and local government web resources and services.